OICC  Shahid Ashrafi Esfahani  Airport

Kermanshah, Iran

Add Bookmark
ICAO OICC
IATA KSH
Type Airport
Status Operational
Latitude
34° 20' 45" N
34.345901
Longitude
47° 9' 29" E
47.158100
Local (GMT +4.5 ) UTC
Aug 25, 2016 07:08 am Aug 25, 2016 02:38
Sunrise-Sunset Local UTC
Begin Civil Twilight 06:22 am 01:52
Sunrise 06:48 am 02:18
Sunset 07:57 pm 15:27
End Civil Twilight 08:23 pm 15:53
VFR
VFR
MVFR
MVFR
IFR
IFR
LIFR
LIFR
Unknown
Unavailable

Current Weather

METAR Observed VFR
OICC 250200Z 00000KT CAVOK 21/M06 Q1014 A2996 Thu, Aug 25, 2016 @ 02:00 UTC
(38 Minutes ago)
Visual Flight Rules
Wind Visibility Conditions
Calm 10 km or more
  • No significant weather
Temperatures Readings Precipitation
Current Temp
21°C
70°F
Dewpoint
-6°C
21°F
Humidity 16%
Altimeter 29.94" Hg
Sea Level Pressure 1,014 mb
Field Elevation
1,322 m
4,337 ft
None Recorded

Additional weather within a 92.6km radius of OICC

Map ICAO Location
OIGK 8km S/SW (209°)
VFR
VFR
MVFR
MVFR
IFR
IFR
LIFR
LIFR
Unknown
Unavailable
-
-

CheckWX.com is intended as a tool to help pilots better visualize weather data. It is not intended as a substitute for an official weather briefing obtained from a Flight Service Station. CheckWX.com does not meet the FAA requirements for an official pre-flight weather briefing. Therefore, it's important that pilots still call and obtain an official FSS pre-flight weather briefing.

© 2007-2016 CheckWX.com
02:38:45 UTC